sensor_id;sensor_type;location;lat;lon;timestamp;P1;durP1;ratioP1;P2;durP2;ratioP2
16039;SDS011;8124;48.634;8.120;2023-07-28T00:01:53;44.45;;;38.88;;
16039;SDS011;8124;48.634;8.120;2023-07-28T00:06:58;43.47;;;38.78;;
16039;SDS011;8124;48.634;8.120;2023-07-28T00:12:01;43.65;;;38.95;;
16039;SDS011;8124;48.634;8.120;2023-07-28T00:17:04;45.72;;;39.35;;
16039;SDS011;8124;48.634;8.120;2023-07-28T00:22:09;43.65;;;38.95;;
16039;SDS011;8124;48.634;8.120;2023-07-28T00:27:11;43.20;;;38.53;;
16039;SDS011;8124;48.634;8.120;2023-07-28T00:32:18;43.88;;;39.17;;
16039;SDS011;8124;48.634;8.120;2023-07-28T00:37:22;43.42;;;38.75;;
16039;SDS011;8124;48.634;8.120;2023-07-28T00:42:25;43.85;;;39.05;;
16039;SDS011;8124;48.634;8.120;2023-07-28T00:47:28;43.53;;;38.78;;
16039;SDS011;8124;48.634;8.120;2023-07-28T00:52:33;44.35;;;39.55;;
16039;SDS011;8124;48.634;8.120;2023-07-28T00:57:36;43.65;;;38.95;;
16039;SDS011;8124;48.634;8.120;2023-07-28T01:02:40;43.97;;;39.25;;
16039;SDS011;8124;48.634;8.120;2023-07-28T01:07:47;43.85;;;39.05;;
16039;SDS011;8124;48.634;8.120;2023-07-28T01:13:01;43.72;;;39.03;;
16039;SDS011;8124;48.634;8.120;2023-07-28T01:18:04;44.63;;;38.78;;
16039;SDS011;8124;48.634;8.120;2023-07-28T01:23:19;43.28;;;38.60;;
16039;SDS011;8124;48.634;8.120;2023-07-28T01:28:27;43.90;;;39.10;;
16039;SDS011;8124;48.634;8.120;2023-07-28T01:33:31;43.95;;;39.17;;
16039;SDS011;8124;48.634;8.120;2023-07-28T01:38:34;43.67;;;38.95;;
16039;SDS011;8124;48.634;8.120;2023-07-28T01:43:39;43.78;;;39.08;;
16039;SDS011;8124;48.634;8.120;2023-07-28T01:48:43;43.55;;;38.85;;
16039;SDS011;8124;48.634;8.120;2023-07-28T01:53:46;44.08;;;39.38;;
16039;SDS011;8124;48.634;8.120;2023-07-28T01:58:50;43.92;;;39.13;;
16039;SDS011;8124;48.634;8.120;2023-07-28T02:03:53;44.40;;;39.05;;
16039;SDS011;8124;48.634;8.120;2023-07-28T02:08:56;44.05;;;39.22;;
16039;SDS011;8124;48.634;8.120;2023-07-28T02:14:01;43.67;;;38.97;;
16039;SDS011;8124;48.634;8.120;2023-07-28T02:19:03;44.25;;;39.45;;
16039;SDS011;8124;48.634;8.120;2023-07-28T02:24:07;43.90;;;39.00;;
16039;SDS011;8124;48.634;8.120;2023-07-28T02:29:12;44.17;;;39.40;;
16039;SDS011;8124;48.634;8.120;2023-07-28T02:34:15;43.38;;;38.67;;
16039;SDS011;8124;48.634;8.120;2023-07-28T02:39:18;43.45;;;38.75;;
16039;SDS011;8124;48.634;8.120;2023-07-28T02:44:23;44.13;;;39.38;;
16039;SDS011;8124;48.634;8.120;2023-07-28T02:49:26;44.03;;;39.20;;
16039;SDS011;8124;48.634;8.120;2023-07-28T02:54:29;44.35;;;39.55;;
16039;SDS011;8124;48.634;8.120;2023-07-28T02:59:33;44.20;;;39.38;;
16039;SDS011;8124;48.634;8.120;2023-07-28T03:04:36;43.70;;;38.97;;
16039;SDS011;8124;48.634;8.120;2023-07-28T03:09:39;43.63;;;38.90;;
16039;SDS011;8124;48.634;8.120;2023-07-28T03:14:43;44.80;;;39.22;;
16039;SDS011;8124;48.634;8.120;2023-07-28T03:19:46;43.72;;;39.03;;
16039;SDS011;8124;48.634;8.120;2023-07-28T03:24:49;45.55;;;39.47;;
16039;SDS011;8124;48.634;8.120;2023-07-28T03:29:54;46.45;;;39.25;;
16039;SDS011;8124;48.634;8.120;2023-07-28T03:34:57;45.25;;;39.42;;
16039;SDS011;8124;48.634;8.120;2023-07-28T03:40:02;44.25;;;39.45;;
16039;SDS011;8124;48.634;8.120;2023-07-28T03:45:16;44.05;;;39.28;;
16039;SDS011;8124;48.634;8.120;2023-07-28T03:50:19;44.00;;;39.30;;
16039;SDS011;8124;48.634;8.120;2023-07-28T03:55:22;44.28;;;39.25;;
16039;SDS011;8124;48.634;8.120;2023-07-28T04:00:26;44.58;;;39.78;;
16039;SDS011;8124;48.634;8.120;2023-07-28T04:05:31;44.70;;;39.67;;
16039;SDS011;8124;48.634;8.120;2023-07-28T04:10:34;43.92;;;39.13;;
16039;SDS011;8124;48.634;8.120;2023-07-28T04:15:38;44.45;;;39.55;;
16039;SDS011;8124;48.634;8.120;2023-07-28T04:20:41;44.65;;;39.72;;
16039;SDS011;8124;48.634;8.120;2023-07-28T04:25:44;44.10;;;39.33;;
16039;SDS011;8124;48.634;8.120;2023-07-28T04:30:48;43.83;;;39.08;;
16039;SDS011;8124;48.634;8.120;2023-07-28T04:36:18;44.80;;;39.33;;
16039;SDS011;8124;48.634;8.120;2023-07-28T04:41:21;43.88;;;39.10;;
16039;SDS011;8124;48.634;8.120;2023-07-28T04:46:28;44.38;;;39.58;;
16039;SDS011;8124;48.634;8.120;2023-07-28T04:51:31;44.25;;;39.45;;
16039;SDS011;8124;48.634;8.120;2023-07-28T04:57:10;44.10;;;39.40;;
16039;SDS011;8124;48.634;8.120;2023-07-28T05:02:18;44.05;;;39.28;;
16039;SDS011;8124;48.634;8.120;2023-07-28T05:07:21;44.67;;;39.78;;
16039;SDS011;8124;48.634;8.120;2023-07-28T05:12:24;46.38;;;39.45;;
16039;SDS011;8124;48.634;8.120;2023-07-28T05:17:29;43.85;;;39.05;;
16039;SDS011;8124;48.634;8.120;2023-07-28T05:23:04;44.58;;;39.70;;
16039;SDS011;8124;48.634;8.120;2023-07-28T05:28:07;44.70;;;39.85;;
16039;SDS011;8124;48.634;8.120;2023-07-28T05:33:14;44.28;;;39.53;;
16039;SDS011;8124;48.634;8.120;2023-07-28T05:38:22;44.80;;;40.00;;
16039;SDS011;8124;48.634;8.120;2023-07-28T05:43:25;44.33;;;39.53;;
16039;SDS011;8124;48.634;8.120;2023-07-28T05:48:32;46.60;;;39.45;;
16039;SDS011;8124;48.634;8.120;2023-07-28T05:53:34;43.50;;;38.80;;
16039;SDS011;8124;48.634;8.120;2023-07-28T05:58:40;45.42;;;39.35;;
16039;SDS011;8124;48.634;8.120;2023-07-28T06:03:44;44.03;;;39.22;;
16039;SDS011;8124;48.634;8.120;2023-07-28T06:08:55;43.88;;;39.15;;
16039;SDS011;8124;48.634;8.120;2023-07-28T06:13:58;44.05;;;39.25;;
16039;SDS011;8124;48.634;8.120;2023-07-28T06:19:02;44.30;;;39.28;;
16039;SDS011;8124;48.634;8.120;2023-07-28T06:24:08;43.72;;;38.97;;
16039;SDS011;8124;48.634;8.120;2023-07-28T06:29:11;44.67;;;39.78;;
16039;SDS011;8124;48.634;8.120;2023-07-28T06:34:15;44.85;;;39.28;;
16039;SDS011;8124;48.634;8.120;2023-07-28T06:39:18;44.47;;;39.28;;
16039;SDS011;8124;48.634;8.120;2023-07-28T06:44:21;44.10;;;38.80;;
16039;SDS011;8124;48.634;8.120;2023-07-28T06:49:26;44.55;;;39.30;;
16039;SDS011;8124;48.634;8.120;2023-07-28T06:54:29;44.47;;;39.67;;
16039;SDS011;8124;48.634;8.120;2023-07-28T06:59:33;46.25;;;40.35;;
16039;SDS011;8124;48.634;8.120;2023-07-28T07:04:37;43.60;;;38.88;;
16039;SDS011;8124;48.634;8.120;2023-07-28T07:09:40;43.92;;;39.17;;
16039;SDS011;8124;48.634;8.120;2023-07-28T07:14:43;45.40;;;39.97;;
16039;SDS011;8124;48.634;8.120;2023-07-28T07:19:48;44.28;;;39.47;;
16039;SDS011;8124;48.634;8.120;2023-07-28T07:24:51;46.45;;;39.30;;
16039;SDS011;8124;48.634;8.120;2023-07-28T07:29:55;43.97;;;39.13;;
16039;SDS011;8124;48.634;8.120;2023-07-28T07:34:59;43.92;;;39.13;;
16039;SDS011;8124;48.634;8.120;2023-07-28T07:40:03;43.47;;;38.78;;
16039;SDS011;8124;48.634;8.120;2023-07-28T07:45:08;44.40;;;39.60;;
16039;SDS011;8124;48.634;8.120;2023-07-28T07:50:13;44.13;;;39.30;;
16039;SDS011;8124;48.634;8.120;2023-07-28T07:55:16;43.97;;;39.17;;
16039;SDS011;8124;48.634;8.120;2023-07-28T08:00:19;44.10;;;39.35;;
16039;SDS011;8124;48.634;8.120;2023-07-28T08:05:24;43.63;;;38.70;;
16039;SDS011;8124;48.634;8.120;2023-07-28T08:10:27;43.75;;;38.92;;
16039;SDS011;8124;48.634;8.120;2023-07-28T08:15:30;44.10;;;39.35;;
16039;SDS011;8124;48.634;8.120;2023-07-28T08:20:34;43.80;;;39.10;;
16039;SDS011;8124;48.634;8.120;2023-07-28T08:25:37;43.78;;;39.05;;
16039;SDS011;8124;48.634;8.120;2023-07-28T08:30:40;44.70;;;39.92;;
16039;SDS011;8124;48.634;8.120;2023-07-28T08:35:44;45.67;;;39.03;;
16039;SDS011;8124;48.634;8.120;2023-07-28T08:40:47;44.33;;;39.42;;
16039;SDS011;8124;48.634;8.120;2023-07-28T08:45:51;44.08;;;39.33;;
16039;SDS011;8124;48.634;8.120;2023-07-28T08:50:57;44.33;;;39.53;;
16039;SDS011;8124;48.634;8.120;2023-07-28T08:56:00;44.42;;;39.33;;
16039;SDS011;8124;48.634;8.120;2023-07-28T09:01:07;43.88;;;39.17;;
16039;SDS011;8124;48.634;8.120;2023-07-28T09:06:12;43.67;;;38.97;;
16039;SDS011;8124;48.634;8.120;2023-07-28T09:11:15;45.72;;;39.28;;
16039;SDS011;8124;48.634;8.120;2023-07-28T09:16:20;45.65;;;39.38;;
16039;SDS011;8124;48.634;8.120;2023-07-28T09:21:27;43.78;;;39.08;;
16039;SDS011;8124;48.634;8.120;2023-07-28T09:26:36;44.25;;;39.45;;
16039;SDS011;8124;48.634;8.120;2023-07-28T09:31:40;43.65;;;38.95;;
16039;SDS011;8124;48.634;8.120;2023-07-28T09:36:44;43.97;;;39.20;;
16039;SDS011;8124;48.634;8.120;2023-07-28T09:41:48;43.75;;;38.95;;
16039;SDS011;8124;48.634;8.120;2023-07-28T09:46:52;45.50;;;39.35;;
16039;SDS011;8124;48.634;8.120;2023-07-28T09:52:00;43.88;;;39.10;;
16039;SDS011;8124;48.634;8.120;2023-07-28T09:57:08;44.00;;;39.05;;
16039;SDS011;8124;48.634;8.120;2023-07-28T10:07:41;44.38;;;39.45;;
16039;SDS011;8124;48.634;8.120;2023-07-28T10:12:48;44.85;;;39.90;;
16039;SDS011;8124;48.634;8.120;2023-07-28T10:17:53;44.33;;;39.50;;
16039;SDS011;8124;48.634;8.120;2023-07-28T10:23:07;44.90;;;39.90;;
16039;SDS011;8124;48.634;8.120;2023-07-28T10:28:25;44.65;;;39.85;;
16039;SDS011;8124;48.634;8.120;2023-07-28T10:33:30;45.00;;;40.10;;
16039;SDS011;8124;48.634;8.120;2023-07-28T10:38:38;46.75;;;40.22;;
16039;SDS011;8124;48.634;8.120;2023-07-28T10:43:42;45.53;;;40.42;;
16039;SDS011;8124;48.634;8.120;2023-07-28T10:48:46;46.42;;;40.33;;
16039;SDS011;8124;48.634;8.120;2023-07-28T10:53:51;45.63;;;40.72;;
16039;SDS011;8124;48.634;8.120;2023-07-28T10:58:57;45.72;;;40.50;;
16039;SDS011;8124;48.634;8.120;2023-07-28T11:04:07;45.92;;;40.10;;
16039;SDS011;8124;48.634;8.120;2023-07-28T11:09:14;45.00;;;40.10;;
16039;SDS011;8124;48.634;8.120;2023-07-28T11:14:18;45.15;;;40.25;;
16039;SDS011;8124;48.634;8.120;2023-07-28T11:19:21;45.10;;;40.25;;
16039;SDS011;8124;48.634;8.120;2023-07-28T11:24:29;45.85;;;40.50;;
16039;SDS011;8124;48.634;8.120;2023-07-28T11:29:32;45.35;;;40.45;;
16039;SDS011;8124;48.634;8.120;2023-07-28T11:34:35;45.75;;;40.75;;
16039;SDS011;8124;48.634;8.120;2023-07-28T11:39:40;45.72;;;40.38;;
16039;SDS011;8124;48.634;8.120;2023-07-28T11:44:43;45.92;;;40.92;;
16039;SDS011;8124;48.634;8.120;2023-07-28T11:49:48;45.80;;;40.75;;
16039;SDS011;8124;48.634;8.120;2023-07-28T11:54:53;45.53;;;40.53;;
16039;SDS011;8124;48.634;8.120;2023-07-28T11:59:56;48.60;;;40.72;;
16039;SDS011;8124;48.634;8.120;2023-07-28T12:04:59;45.00;;;40.03;;
16039;SDS011;8124;48.634;8.120;2023-07-28T12:10:07;45.13;;;40.10;;
16039;SDS011;8124;48.634;8.120;2023-07-28T12:15:24;45.97;;;40.97;;
16039;SDS011;8124;48.634;8.120;2023-07-28T12:20:36;47.67;;;40.47;;
16039;SDS011;8124;48.634;8.120;2023-07-28T12:25:42;45.40;;;40.50;;
16039;SDS011;8124;48.634;8.120;2023-07-28T12:30:45;45.33;;;40.42;;
16039;SDS011;8124;48.634;8.120;2023-07-28T12:35:50;46.00;;;41.08;;
16039;SDS011;8124;48.634;8.120;2023-07-28T12:40:55;45.00;;;40.10;;
16039;SDS011;8124;48.634;8.120;2023-07-28T12:46:01;46.45;;;41.45;;
16039;SDS011;8124;48.634;8.120;2023-07-28T12:51:07;45.38;;;40.50;;
16039;SDS011;8124;48.634;8.120;2023-07-28T12:56:11;45.70;;;40.70;;
16039;SDS011;8124;48.634;8.120;2023-07-28T13:01:36;44.92;;;40.08;;
16039;SDS011;8124;48.634;8.120;2023-07-28T13:06:39;44.88;;;39.97;;
16039;SDS011;8124;48.634;8.120;2023-07-28T13:11:44;45.40;;;40.53;;
16039;SDS011;8124;48.634;8.120;2023-07-28T13:16:50;45.25;;;40.35;;
16039;SDS011;8124;48.634;8.120;2023-07-28T13:21:53;47.55;;;40.03;;
16039;SDS011;8124;48.634;8.120;2023-07-28T13:26:57;45.20;;;40.35;;
16039;SDS011;8124;48.634;8.120;2023-07-28T13:32:00;45.10;;;40.05;;
16039;SDS011;8124;48.634;8.120;2023-07-28T13:37:04;45.05;;;40.15;;
16039;SDS011;8124;48.634;8.120;2023-07-28T13:42:08;44.50;;;39.70;;
16039;SDS011;8124;48.634;8.120;2023-07-28T13:47:13;44.88;;;40.08;;
16039;SDS011;8124;48.634;8.120;2023-07-28T13:52:16;45.92;;;40.13;;
16039;SDS011;8124;48.634;8.120;2023-07-28T13:57:24;44.88;;;40.03;;
16039;SDS011;8124;48.634;8.120;2023-07-28T14:02:27;45.08;;;40.22;;
16039;SDS011;8124;48.634;8.120;2023-07-28T14:07:31;44.97;;;40.13;;
16039;SDS011;8124;48.634;8.120;2023-07-28T14:12:36;44.78;;;39.90;;
16039;SDS011;8124;48.634;8.120;2023-07-28T14:17:39;45.05;;;40.05;;
16039;SDS011;8124;48.634;8.120;2023-07-28T14:22:42;45.30;;;40.45;;
16039;SDS011;8124;48.634;8.120;2023-07-28T14:27:47;45.20;;;40.05;;
16039;SDS011;8124;48.634;8.120;2023-07-28T14:32:50;45.00;;;40.05;;
16039;SDS011;8124;48.634;8.120;2023-07-28T14:37:53;47.20;;;40.45;;
16039;SDS011;8124;48.634;8.120;2023-07-28T14:42:57;45.40;;;40.50;;
16039;SDS011;8124;48.634;8.120;2023-07-28T14:48:01;44.95;;;40.08;;
16039;SDS011;8124;48.634;8.120;2023-07-28T14:58:33;46.33;;;40.58;;
16039;SDS011;8124;48.634;8.120;2023-07-28T15:03:36;46.10;;;40.20;;
16039;SDS011;8124;48.634;8.120;2023-07-28T15:08:39;45.03;;;40.13;;
16039;SDS011;8124;48.634;8.120;2023-07-28T15:13:44;45.28;;;40.42;;
16039;SDS011;8124;48.634;8.120;2023-07-28T15:18:47;44.92;;;40.03;;
16039;SDS011;8124;48.634;8.120;2023-07-28T15:23:52;46.13;;;40.90;;
16039;SDS011;8124;48.634;8.120;2023-07-28T15:28:57;45.15;;;40.25;;
16039;SDS011;8124;48.634;8.120;2023-07-28T15:34:02;45.60;;;40.63;;
16039;SDS011;8124;48.634;8.120;2023-07-28T15:39:05;44.90;;;40.10;;
16039;SDS011;8124;48.634;8.120;2023-07-28T15:44:10;45.80;;;40.88;;
16039;SDS011;8124;48.634;8.120;2023-07-28T15:49:13;44.90;;;40.10;;
16039;SDS011;8124;48.634;8.120;2023-07-28T15:54:15;45.20;;;39.80;;
16039;SDS011;8124;48.634;8.120;2023-07-28T15:59:20;47.15;;;42.25;;
16039;SDS011;8124;48.634;8.120;2023-07-28T16:04:23;45.35;;;40.17;;
16039;SDS011;8124;48.634;8.120;2023-07-28T16:09:26;44.55;;;39.47;;
16039;SDS011;8124;48.634;8.120;2023-07-28T16:14:30;44.60;;;39.70;;
16039;SDS011;8124;48.634;8.120;2023-07-28T16:19:34;44.17;;;39.45;;
16039;SDS011;8124;48.634;8.120;2023-07-28T16:24:37;44.15;;;39.35;;
16039;SDS011;8124;48.634;8.120;2023-07-28T16:29:41;44.40;;;39.60;;
16039;SDS011;8124;48.634;8.120;2023-07-28T16:34:45;44.30;;;39.60;;
16039;SDS011;8124;48.634;8.120;2023-07-28T16:39:48;43.78;;;39.10;;
16039;SDS011;8124;48.634;8.120;2023-07-28T16:44:54;43.63;;;38.92;;
16039;SDS011;8124;48.634;8.120;2023-07-28T16:49:57;43.85;;;39.15;;
16039;SDS011;8124;48.634;8.120;2023-07-28T16:55:00;43.92;;;39.22;;
16039;SDS011;8124;48.634;8.120;2023-07-28T17:00:06;43.38;;;38.75;;
16039;SDS011;8124;48.634;8.120;2023-07-28T17:05:10;43.55;;;38.92;;
16039;SDS011;8124;48.634;8.120;2023-07-28T17:10:13;43.47;;;38.78;;
16039;SDS011;8124;48.634;8.120;2023-07-28T17:15:18;43.38;;;38.67;;
16039;SDS011;8124;48.634;8.120;2023-07-28T17:20:40;43.35;;;38.65;;
16039;SDS011;8124;48.634;8.120;2023-07-28T17:25:43;43.50;;;38.88;;
16039;SDS011;8124;48.634;8.120;2023-07-28T17:30:47;42.95;;;38.35;;
16039;SDS011;8124;48.634;8.120;2023-07-28T17:35:50;42.85;;;38.25;;
16039;SDS011;8124;48.634;8.120;2023-07-28T17:40:54;42.97;;;38.15;;
16039;SDS011;8124;48.634;8.120;2023-07-28T17:45:58;42.85;;;38.25;;
16039;SDS011;8124;48.634;8.120;2023-07-28T17:51:02;43.00;;;38.40;;
16039;SDS011;8124;48.634;8.120;2023-07-28T17:56:05;42.70;;;38.13;;
16039;SDS011;8124;48.634;8.120;2023-07-28T18:01:10;42.70;;;38.10;;
16039;SDS011;8124;48.634;8.120;2023-07-28T18:06:13;42.78;;;38.17;;
16039;SDS011;8124;48.634;8.120;2023-07-28T18:11:16;43.05;;;38.45;;
16039;SDS011;8124;48.634;8.120;2023-07-28T18:16:20;42.58;;;37.97;;
16039;SDS011;8124;48.634;8.120;2023-07-28T18:21:26;42.88;;;38.28;;
16039;SDS011;8124;48.634;8.120;2023-07-28T18:26:35;42.75;;;38.15;;
16039;SDS011;8124;48.634;8.120;2023-07-28T18:31:40;42.83;;;38.22;;
16039;SDS011;8124;48.634;8.120;2023-07-28T18:36:43;42.88;;;38.28;;
16039;SDS011;8124;48.634;8.120;2023-07-28T18:41:46;42.83;;;38.22;;
16039;SDS011;8124;48.634;8.120;2023-07-28T18:46:53;42.85;;;38.25;;
16039;SDS011;8124;48.634;8.120;2023-07-28T18:51:56;43.15;;;38.55;;
16039;SDS011;8124;48.634;8.120;2023-07-28T18:56:59;42.80;;;38.20;;
16039;SDS011;8124;48.634;8.120;2023-07-28T19:02:04;42.85;;;38.15;;
16039;SDS011;8124;48.634;8.120;2023-07-28T19:07:08;42.90;;;38.25;;
16039;SDS011;8124;48.634;8.120;2023-07-28T19:12:11;42.78;;;38.15;;
16039;SDS011;8124;48.634;8.120;2023-07-28T19:17:15;42.63;;;38.03;;
16039;SDS011;8124;48.634;8.120;2023-07-28T19:22:21;42.97;;;38.38;;
16039;SDS011;8124;48.634;8.120;2023-07-28T19:27:25;42.53;;;37.95;;
16039;SDS011;8124;48.634;8.120;2023-07-28T19:32:33;42.50;;;37.90;;
16039;SDS011;8124;48.634;8.120;2023-07-28T19:37:36;42.50;;;37.92;;
16039;SDS011;8124;48.634;8.120;2023-07-28T19:42:45;44.15;;;38.65;;
16039;SDS011;8124;48.634;8.120;2023-07-28T19:47:50;44.13;;;38.55;;
16039;SDS011;8124;48.634;8.120;2023-07-28T19:52:53;43.13;;;38.15;;
16039;SDS011;8124;48.634;8.120;2023-07-28T19:57:56;42.85;;;38.25;;
16039;SDS011;8124;48.634;8.120;2023-07-28T20:03:00;44.03;;;38.10;;
16039;SDS011;8124;48.634;8.120;2023-07-28T20:08:04;42.72;;;38.13;;
16039;SDS011;8124;48.634;8.120;2023-07-28T20:13:07;42.92;;;38.28;;
16039;SDS011;8124;48.634;8.120;2023-07-28T20:18:11;42.85;;;38.25;;
16039;SDS011;8124;48.634;8.120;2023-07-28T20:23:15;42.75;;;38.15;;
16039;SDS011;8124;48.634;8.120;2023-07-28T20:28:19;44.10;;;38.78;;
16039;SDS011;8124;48.634;8.120;2023-07-28T20:33:24;42.70;;;37.95;;
16039;SDS011;8124;48.634;8.120;2023-07-28T20:38:27;43.90;;;39.20;;
16039;SDS011;8124;48.634;8.120;2023-07-28T20:43:31;43.13;;;38.53;;
16039;SDS011;8124;48.634;8.120;2023-07-28T20:48:35;42.65;;;38.05;;
16039;SDS011;8124;48.634;8.120;2023-07-28T20:53:38;42.67;;;38.10;;
16039;SDS011;8124;48.634;8.120;2023-07-28T20:58:41;43.17;;;38.58;;
16039;SDS011;8124;48.634;8.120;2023-07-28T21:03:45;42.40;;;37.80;;
16039;SDS011;8124;48.634;8.120;2023-07-28T21:08:48;43.20;;;38.03;;
16039;SDS011;8124;48.634;8.120;2023-07-28T21:13:51;42.97;;;38.38;;
16039;SDS011;8124;48.634;8.120;2023-07-28T21:18:56;42.05;;;37.53;;
16039;SDS011;8124;48.634;8.120;2023-07-28T21:23:59;42.35;;;37.75;;
16039;SDS011;8124;48.634;8.120;2023-07-28T21:29:02;42.42;;;37.78;;
16039;SDS011;8124;48.634;8.120;2023-07-28T21:34:07;43.53;;;37.60;;
16039;SDS011;8124;48.634;8.120;2023-07-28T21:39:13;42.60;;;37.65;;
16039;SDS011;8124;48.634;8.120;2023-07-28T21:44:17;42.55;;;37.95;;
16039;SDS011;8124;48.634;8.120;2023-07-28T21:49:21;43.80;;;37.60;;
16039;SDS011;8124;48.634;8.120;2023-07-28T21:54:24;42.20;;;37.60;;
16039;SDS011;8124;48.634;8.120;2023-07-28T21:59:27;41.95;;;37.45;;
16039;SDS011;8124;48.634;8.120;2023-07-28T22:04:32;42.85;;;38.17;;
16039;SDS011;8124;48.634;8.120;2023-07-28T22:09:35;42.35;;;37.75;;
16039;SDS011;8124;48.634;8.120;2023-07-28T22:14:38;42.40;;;37.80;;
16039;SDS011;8124;48.634;8.120;2023-07-28T22:19:42;42.35;;;37.75;;
16039;SDS011;8124;48.634;8.120;2023-07-28T22:24:45;42.97;;;38.03;;
16039;SDS011;8124;48.634;8.120;2023-07-28T22:29:48;42.08;;;37.55;;
16039;SDS011;8124;48.634;8.120;2023-07-28T22:34:55;42.45;;;37.85;;
16039;SDS011;8124;48.634;8.120;2023-07-28T22:39:58;42.80;;;38.08;;
16039;SDS011;8124;48.634;8.120;2023-07-28T22:45:01;42.40;;;37.80;;
16039;SDS011;8124;48.634;8.120;2023-07-28T22:50:07;43.00;;;38.30;;
16039;SDS011;8124;48.634;8.120;2023-07-28T22:55:10;42.72;;;37.65;;
16039;SDS011;8124;48.634;8.120;2023-07-28T23:00:16;42.85;;;38.25;;
16039;SDS011;8124;48.634;8.120;2023-07-28T23:05:26;44.00;;;38.22;;
16039;SDS011;8124;48.634;8.120;2023-07-28T23:10:29;42.38;;;37.78;;
16039;SDS011;8124;48.634;8.120;2023-07-28T23:15:32;42.15;;;37.65;;
16039;SDS011;8124;48.634;8.120;2023-07-28T23:20:36;42.63;;;38.03;;
16039;SDS011;8124;48.634;8.120;2023-07-28T23:25:39;42.60;;;38.03;;
16039;SDS011;8124;48.634;8.120;2023-07-28T23:30:42;42.78;;;37.97;;
16039;SDS011;8124;48.634;8.120;2023-07-28T23:35:46;42.55;;;37.95;;
16039;SDS011;8124;48.634;8.120;2023-07-28T23:40:49;42.25;;;37.65;;
16039;SDS011;8124;48.634;8.120;2023-07-28T23:45:52;42.83;;;37.92;;
16039;SDS011;8124;48.634;8.120;2023-07-28T23:51:01;43.78;;;38.17;;
16039;SDS011;8124;48.634;8.120;2023-07-28T23:56:04;42.58;;;37.97;;
